Time;durP1;ratioP1;P1;durP2;ratioP2;P2;SDS_P1;SDS_P2;PMS_P1;PMS_P2;Temp;Humidity;BMP_temperature;BMP_pressure;BME280_temperature;BME280_humidity;BME280_pressure;Samples;Min_cycle;Max_cycle;Signal;HPM_P1;HPM_P2
2023/12/31 00:01:34;;;;;;;0.75;0.45;;;10.40;99.90;;;;;;5093434;28;20092;-64
2023/12/31 00:04:00;;;;;;;3.80;1.23;;;10.40;99.90;;;;;;5093635;28;20021;-64
2023/12/31 00:06:26;;;;;;;2.83;0.70;;;10.40;99.90;;;;;;5093632;28;20039;-64
2023/12/31 00:08:51;;;;;;;0.57;0.40;;;10.40;99.90;;;;;;5093595;28;20025;-64
2023/12/31 00:11:17;;;;;;;3.05;0.82;;;10.40;99.90;;;;;;5093596;28;20025;-64
2023/12/31 00:13:43;;;;;;;1.33;0.50;;;10.40;99.90;;;;;;5093472;28;20017;-64
2023/12/31 00:16:15;;;;;;;1.05;0.68;;;10.40;99.90;;;;;;5093541;28;20024;-64
2023/12/31 00:18:41;;;;;;;3.60;1.02;;;10.40;99.90;;;;;;5093356;28;20029;-64
2023/12/31 00:21:06;;;;;;;1.95;0.63;;;10.40;99.90;;;;;;5093325;28;20035;-65
2023/12/31 00:23:32;;;;;;;2.05;0.85;;;10.40;99.90;;;;;;5093281;28;20032;-64
2023/12/31 00:25:58;;;;;;;1.17;0.50;;;10.40;99.90;;;;;;5093264;28;20483;-64
2023/12/31 00:28:23;;;;;;;2.38;0.52;;;10.50;99.90;;;;;;5093142;28;20047;-65
2023/12/31 00:30:49;;;;;;;1.45;0.98;;;10.50;99.90;;;;;;5093066;28;20025;-64
2023/12/31 00:33:16;;;;;;;1.15;0.70;;;10.50;99.90;;;;;;5093003;28;20040;-65
2023/12/31 00:35:41;;;;;;;1.48;0.50;;;10.50;99.90;;;;;;5093197;28;20021;-64
2023/12/31 00:38:07;;;;;;;0.80;0.65;;;10.50;99.90;;;;;;5093065;28;20379;-64
2023/12/31 00:40:32;;;;;;;1.00;0.60;;;10.50;99.90;;;;;;5093059;28;20025;-64
2023/12/31 00:42:58;;;;;;;3.10;0.75;;;10.50;99.90;;;;;;5093039;28;20036;-64
2023/12/31 00:45:24;;;;;;;2.10;0.63;;;10.50;99.90;;;;;;5092934;28;20025;-64
2023/12/31 00:47:49;;;;;;;1.55;0.77;;;10.50;99.90;;;;;;5092762;28;20561;-65
2023/12/31 00:50:15;;;;;;;2.53;0.70;;;10.50;99.90;;;;;;5092735;28;20029;-64
2023/12/31 00:52:40;;;;;;;1.35;0.80;;;10.50;99.90;;;;;;5092876;28;20036;-64
2023/12/31 00:55:07;;;;;;;1.45;0.73;;;10.50;99.90;;;;;;5092708;28;20036;-64
2023/12/31 00:57:32;;;;;;;1.45;0.60;;;10.50;99.90;;;;;;5092773;28;20062;-64
2023/12/31 00:59:58;;;;;;;1.52;0.75;;;10.50;99.90;;;;;;5092698;28;20028;-64
2023/12/31 01:02:24;;;;;;;1.23;0.75;;;10.50;99.90;;;;;;5092333;28;20048;-65
2023/12/31 01:04:49;;;;;;;1.85;0.90;;;10.50;99.90;;;;;;5092580;28;20544;-65
2023/12/31 01:07:15;;;;;;;1.63;1.00;;;10.50;99.90;;;;;;5092527;28;20025;-65
2023/12/31 01:09:40;;;;;;;2.15;0.80;;;10.50;99.90;;;;;;5092652;28;20545;-64
2023/12/31 01:12:06;;;;;;;2.00;0.90;;;10.50;99.90;;;;;;5091568;28;20047;-64
2023/12/31 01:14:35;;;;;;;4.20;0.85;;;10.50;99.90;;;;;;5092041;28;20021;-64
2023/12/31 01:17:01;;;;;;;1.45;0.73;;;10.50;99.90;;;;;;5092432;28;20028;-64
2023/12/31 01:19:27;;;;;;;4.00;0.88;;;10.50;99.90;;;;;;5092380;28;20486;-64
2023/12/31 01:21:52;;;;;;;1.23;1.13;;;10.50;99.90;;;;;;5092377;28;20032;-64
2023/12/31 01:24:18;;;;;;;1.67;0.77;;;10.50;99.90;;;;;;5092343;28;20029;-64
2023/12/31 01:26:43;;;;;;;1.55;0.60;;;10.50;99.90;;;;;;5092208;28;20036;-65
2023/12/31 01:29:09;;;;;;;1.20;0.90;;;10.50;99.90;;;;;;5092177;28;20097;-65
2023/12/31 01:31:35;;;;;;;1.60;0.90;;;10.50;99.90;;;;;;5092038;28;20020;-65
2023/12/31 01:34:00;;;;;;;1.30;0.77;;;10.50;99.90;;;;;;5092294;28;20088;-65
2023/12/31 01:36:26;;;;;;;2.03;0.80;;;10.50;99.90;;;;;;5092289;28;20076;-65
2023/12/31 01:38:52;;;;;;;1.52;0.73;;;10.50;99.90;;;;;;5092248;28;20103;-65
2023/12/31 01:41:18;;;;;;;1.70;0.88;;;10.40;99.90;;;;;;5092272;28;20028;-65
2023/12/31 01:43:43;;;;;;;1.58;0.55;;;10.40;99.90;;;;;;5092209;28;20041;-65
2023/12/31 01:46:11;;;;;;;1.98;1.00;;;10.40;99.90;;;;;;5092046;28;20021;-65
2023/12/31 01:48:37;;;;;;;1.10;0.80;;;10.40;99.90;;;;;;5092044;28;20051;-65
2023/12/31 01:51:03;;;;;;;1.85;0.80;;;10.30;99.90;;;;;;5092143;28;20021;-65
2023/12/31 01:53:30;;;;;;;1.10;0.85;;;10.30;99.90;;;;;;5092121;28;20048;-65
2023/12/31 01:55:57;;;;;;;2.38;0.68;;;10.40;99.90;;;;;;5092011;28;20024;-65
2023/12/31 01:58:23;;;;;;;1.65;0.80;;;10.30;99.90;;;;;;5092078;28;20025;-65
2023/12/31 02:00:49;;;;;;;1.25;0.80;;;10.40;99.90;;;;;;5091768;28;20094;-65
2023/12/31 02:03:15;;;;;;;2.47;0.95;;;10.30;99.90;;;;;;5092047;28;20025;-65
2023/12/31 02:05:41;;;;;;;2.67;0.80;;;10.30;99.90;;;;;;5092010;28;20051;-65
2023/12/31 02:08:07;;;;;;;4.82;0.90;;;10.30;99.90;;;;;;5091953;28;20078;-65
2023/12/31 02:10:33;;;;;;;2.00;0.77;;;10.30;99.90;;;;;;5091939;28;20029;-65
2023/12/31 02:13:00;;;;;;;1.50;1.20;;;10.30;99.90;;;;;;5091934;28;20025;-65
2023/12/31 02:15:32;;;;;;;1.20;0.88;;;10.20;99.90;;;;;;5091759;28;20021;-65
2023/12/31 02:18:00;;;;;;;1.73;1.00;;;10.20;99.90;;;;;;5091807;28;20020;-65
2023/12/31 02:20:26;;;;;;;1.85;0.90;;;10.20;99.90;;;;;;5091778;28;20024;-65
2023/12/31 02:22:52;;;;;;;2.22;1.15;;;10.20;99.90;;;;;;5091763;28;20059;-65
2023/12/31 02:25:22;;;;;;;1.30;0.68;;;10.20;99.90;;;;;;5091653;28;20119;-65
2023/12/31 02:27:48;;;;;;;2.90;1.00;;;10.20;99.90;;;;;;5095407;28;20029;-65
2023/12/31 02:30:14;;;;;;;2.22;1.20;;;10.20;99.90;;;;;;5095354;28;20049;-65
2023/12/31 02:32:39;;;;;;;1.92;1.08;;;10.10;99.90;;;;;;5095335;28;20021;-65
2023/12/31 02:35:05;;;;;;;1.85;1.00;;;10.10;99.90;;;;;;5095538;28;20025;-65
2023/12/31 02:37:31;;;;;;;2.25;1.20;;;10.20;99.90;;;;;;5095424;28;20081;-65
2023/12/31 02:39:57;;;;;;;1.70;0.93;;;10.10;99.90;;;;;;5095352;28;20094;-65
2023/12/31 02:42:22;;;;;;;2.67;1.10;;;10.10;99.90;;;;;;5095360;28;20036;-65
2023/12/31 02:44:48;;;;;;;2.22;0.85;;;10.10;99.90;;;;;;5095278;28;20047;-65
2023/12/31 02:47:14;;;;;;;2.47;1.17;;;10.10;99.90;;;;;;5095098;28;20096;-65
2023/12/31 02:49:40;;;;;;;1.70;0.80;;;10.20;99.90;;;;;;5095158;28;20029;-65
2023/12/31 02:52:05;;;;;;;1.77;0.90;;;10.20;99.90;;;;;;5095168;28;20054;-65
2023/12/31 02:54:31;;;;;;;3.22;1.02;;;10.10;99.90;;;;;;5095086;28;20043;-65
2023/12/31 02:56:57;;;;;;;1.67;1.08;;;10.10;99.90;;;;;;5095009;28;20096;-65
2023/12/31 02:59:23;;;;;;;2.15;1.00;;;10.10;99.90;;;;;;5094973;28;20101;-66
2023/12/31 03:01:50;;;;;;;1.60;0.93;;;10.10;99.90;;;;;;5094786;28;20035;-65
2023/12/31 03:04:15;;;;;;;2.42;0.98;;;10.20;99.90;;;;;;5094850;28;20021;-65
2023/12/31 03:06:41;;;;;;;1.67;0.93;;;10.10;99.90;;;;;;5094831;28;20024;-66
2023/12/31 03:09:07;;;;;;;1.58;0.77;;;10.10;99.90;;;;;;5094822;28;20025;-65
2023/12/31 03:11:34;;;;;;;0.85;0.65;;;10.10;99.90;;;;;;5094765;28;20027;-65
2023/12/31 03:14:00;;;;;;;2.22;1.10;;;10.10;99.90;;;;;;5094726;28;20084;-65
2023/12/31 03:16:25;;;;;;;3.60;1.02;;;10.10;99.90;;;;;;5094621;28;20031;-65
2023/12/31 03:18:54;;;;;;;1.92;0.90;;;10.10;99.90;;;;;;5094567;28;20056;-65
2023/12/31 03:21:20;;;;;;;1.58;0.93;;;10.10;99.90;;;;;;5094644;28;20017;-65
2023/12/31 03:23:46;;;;;;;2.88;1.10;;;10.10;99.90;;;;;;5094627;28;20482;-65
2023/12/31 03:26:11;;;;;;;2.75;1.10;;;10.10;99.90;;;;;;5094424;28;20033;-65
2023/12/31 03:28:37;;;;;;;1.33;0.70;;;10.10;99.90;;;;;;5094260;28;20047;-65
2023/12/31 03:31:03;;;;;;;2.45;0.95;;;10.10;99.90;;;;;;5094190;28;20024;-65
2023/12/31 03:33:29;;;;;;;2.45;0.98;;;10.10;99.90;;;;;;5094340;28;20016;-65
2023/12/31 03:35:55;;;;;;;2.80;1.17;;;10.10;99.90;;;;;;5094279;28;20021;-65
2023/12/31 03:38:21;;;;;;;1.77;0.98;;;10.10;99.90;;;;;;5093828;28;20032;-65
2023/12/31 03:40:46;;;;;;;1.00;0.63;;;10.10;99.90;;;;;;5094202;28;20056;-65
2023/12/31 03:43:12;;;;;;;0.85;0.55;;;10.10;99.90;;;;;;5094181;28;20036;-65
2023/12/31 03:45:38;;;;;;;0.82;0.60;;;10.10;99.90;;;;;;5094212;28;20024;-65
2023/12/31 03:48:05;;;;;;;0.88;0.60;;;10.00;99.90;;;;;;5094000;28;20029;-65
2023/12/31 03:50:30;;;;;;;1.35;0.73;;;10.00;99.90;;;;;;5094015;28;20031;-65
2023/12/31 03:52:56;;;;;;;1.55;1.00;;;10.00;99.90;;;;;;5093953;28;20020;-65
2023/12/31 03:55:22;;;;;;;1.67;0.90;;;9.90;99.90;;;;;;5093775;28;20021;-65
2023/12/31 03:57:48;;;;;;;1.65;1.05;;;9.80;99.90;;;;;;5094078;28;20025;-65
2023/12/31 04:00:14;;;;;;;3.35;0.88;;;9.90;99.90;;;;;;5093811;28;20032;-65
2023/12/31 04:02:39;;;;;;;1.02;0.88;;;9.90;99.90;;;;;;5093706;28;20054;-65
2023/12/31 04:05:06;;;;;;;0.52;0.38;;;9.90;99.90;;;;;;5093730;28;20024;-65
2023/12/31 04:07:31;;;;;;;1.30;0.82;;;9.90;99.90;;;;;;5093632;28;20033;-65
2023/12/31 04:09:57;;;;;;;1.23;0.90;;;9.90;99.90;;;;;;5093555;28;20075;-65
2023/12/31 04:12:23;;;;;;;2.83;1.23;;;9.90;99.90;;;;;;5093587;28;20028;-66
2023/12/31 04:14:48;;;;;;;1.67;0.88;;;9.90;99.90;;;;;;5093620;28;20029;-65
2023/12/31 04:17:14;;;;;;;3.05;1.35;;;9.90;99.90;;;;;;5093510;28;20067;-65
2023/12/31 04:19:40;;;;;;;0.60;0.60;;;9.90;99.90;;;;;;5093412;28;20157;-65
2023/12/31 04:22:05;;;;;;;1.73;0.90;;;9.90;99.90;;;;;;5093369;28;20483;-65
2023/12/31 04:24:31;;;;;;;2.83;0.98;;;9.90;99.90;;;;;;5093188;28;20036;-65
2023/12/31 04:26:57;;;;;;;2.78;0.88;;;9.90;99.90;;;;;;5093212;28;20039;-65
2023/12/31 04:29:23;;;;;;;1.83;1.13;;;9.90;99.90;;;;;;5093039;28;20040;-65
2023/12/31 04:31:49;;;;;;;1.55;0.60;;;9.80;99.90;;;;;;5093044;28;20036;-65
2023/12/31 04:34:14;;;;;;;2.33;1.15;;;9.80;99.90;;;;;;5093169;28;20021;-65
2023/12/31 04:36:44;;;;;;;3.30;0.93;;;9.80;99.90;;;;;;5093106;28;20029;-65
2023/12/31 04:39:10;;;;;;;2.70;1.05;;;9.90;99.90;;;;;;5092997;28;20040;-65
2023/12/31 04:41:36;;;;;;;2.53;1.10;;;9.90;99.90;;;;;;5093039;28;20084;-64
2023/12/31 04:44:01;;;;;;;1.88;1.20;;;9.80;99.90;;;;;;5093004;28;20028;-65
2023/12/31 04:46:27;;;;;;;1.65;0.75;;;9.90;99.90;;;;;;5093039;28;20028;-64
2023/12/31 04:48:53;;;;;;;1.13;0.80;;;9.90;99.90;;;;;;5092060;28;20043;-64
2023/12/31 04:51:29;;;;;;;2.67;1.17;;;9.90;99.90;;;;;;5092887;28;20060;-64
2023/12/31 04:53:56;;;;;;;2.22;1.10;;;9.90;99.90;;;;;;5092708;28;20502;-64
2023/12/31 04:56:24;;;;;;;2.50;0.95;;;9.90;99.90;;;;;;5092779;28;20082;-64
2023/12/31 04:58:51;;;;;;;3.88;1.27;;;9.90;99.90;;;;;;5092761;28;20024;-64
2023/12/31 05:01:17;;;;;;;2.17;1.05;;;9.90;99.90;;;;;;5092398;28;20027;-65
2023/12/31 05:03:45;;;;;;;2.17;1.05;;;9.90;99.90;;;;;;5092607;28;20024;-65
2023/12/31 05:06:12;;;;;;;2.58;1.35;;;9.90;99.90;;;;;;5092564;28;20025;-64
2023/12/31 05:08:40;;;;;;;4.22;2.20;;;10.00;99.90;;;;;;5092588;28;20046;-65
2023/12/31 05:11:06;;;;;;;3.38;2.08;;;9.90;99.90;;;;;;5092591;28;20380;-65
2023/12/31 05:13:32;;;;;;;4.15;1.98;;;9.90;99.90;;;;;;5092499;28;20032;-64
2023/12/31 05:15:58;;;;;;;3.70;2.10;;;10.00;99.90;;;;;;5092459;28;20047;-64
2023/12/31 05:18:23;;;;;;;1.10;0.63;;;10.00;99.90;;;;;;5092400;28;20025;-65
2023/12/31 05:20:49;;;;;;;2.08;1.25;;;10.00;99.90;;;;;;5092196;28;20567;-65
2023/12/31 05:23:14;;;;;;;4.55;2.03;;;10.00;99.90;;;;;;5092436;28;20036;-64
2023/12/31 05:25:40;;;;;;;3.80;1.60;;;10.00;99.90;;;;;;5092296;28;20040;-64
2023/12/31 05:28:06;;;;;;;1.55;1.08;;;10.00;99.90;;;;;;5092181;28;20107;-64
2023/12/31 05:30:31;;;;;;;3.83;1.40;;;10.00;99.90;;;;;;5092143;28;20048;-64
2023/12/31 05:32:57;;;;;;;2.08;1.20;;;10.00;99.90;;;;;;5092227;28;20037;-64
2023/12/31 05:35:22;;;;;;;5.22;1.48;;;10.00;99.90;;;;;;5092214;28;20029;-64
2023/12/31 05:37:48;;;;;;;2.15;1.25;;;10.00;99.90;;;;;;5092279;28;20055;-64
2023/12/31 05:40:14;;;;;;;4.45;1.58;;;10.00;99.90;;;;;;5092206;28;20032;-65
2023/12/31 05:42:39;;;;;;;4.55;1.48;;;10.10;99.90;;;;;;5092209;28;20107;-65
2023/12/31 05:45:06;;;;;;;2.75;1.20;;;10.10;99.90;;;;;;5092152;28;20060;-65
2023/12/31 05:47:31;;;;;;;4.55;1.98;;;10.00;99.90;;;;;;5092077;28;20080;-66
2023/12/31 05:49:57;;;;;;;2.60;1.70;;;10.00;99.90;;;;;;5092050;28;20040;-65
2023/12/31 05:52:22;;;;;;;2.88;1.90;;;10.10;99.90;;;;;;5092222;28;20056;-65
2023/12/31 05:54:48;;;;;;;2.78;1.80;;;10.10;99.90;;;;;;5092105;28;20025;-65
2023/12/31 05:57:14;;;;;;;2.55;1.00;;;10.10;99.90;;;;;;5092026;28;20054;-66
2023/12/31 05:59:39;;;;;;;2.75;1.20;;;10.10;99.90;;;;;;5092681;28;20043;-65
2023/12/31 06:02:07;;;;;;;3.38;1.60;;;10.10;99.90;;;;;;5095942;28;20024;-65
2023/12/31 06:04:32;;;;;;;2.95;1.90;;;10.10;99.90;;;;;;5095975;28;20031;-65
2023/12/31 06:06:58;;;;;;;2.72;1.65;;;10.10;99.90;;;;;;5095980;28;20033;-65
2023/12/31 06:09:26;;;;;;;3.63;1.90;;;10.10;99.90;;;;;;5096004;28;20028;-65
2023/12/31 06:11:52;;;;;;;3.00;1.50;;;10.10;99.90;;;;;;5095961;28;20037;-65
2023/12/31 06:14:17;;;;;;;2.72;1.48;;;10.10;99.90;;;;;;5094898;28;20033;-65
2023/12/31 06:16:43;;;;;;;2.13;1.63;;;10.10;99.90;;;;;;5095804;28;20044;-65
2023/12/31 06:19:09;;;;;;;2.70;1.58;;;10.20;99.90;;;;;;5095639;28;20036;-65
2023/12/31 06:21:34;;;;;;;3.97;2.00;;;10.20;99.90;;;;;;5095674;28;20080;-65
2023/12/31 06:24:00;;;;;;;5.45;1.90;;;10.20;99.90;;;;;;5095623;28;20112;-65
2023/12/31 06:26:26;;;;;;;4.85;2.17;;;10.20;99.90;;;;;;5095710;28;20050;-64
2023/12/31 06:28:51;;;;;;;5.50;2.40;;;10.20;99.90;;;;;;5095325;28;20049;-65
2023/12/31 06:31:17;;;;;;;4.05;2.22;;;10.20;99.90;;;;;;5095371;28;20108;-65
2023/12/31 06:33:42;;;;;;;3.13;1.70;;;10.20;99.90;;;;;;5095438;28;20084;-65
2023/12/31 06:36:08;;;;;;;3.60;2.05;;;10.20;99.90;;;;;;5095486;28;20028;-65
2023/12/31 06:38:34;;;;;;;3.60;1.90;;;10.20;99.90;;;;;;5095389;28;20032;-65
2023/12/31 06:41:07;;;;;;;4.63;1.92;;;10.20;99.90;;;;;;5095354;28;20032;-65
2023/12/31 06:43:33;;;;;;;3.97;2.08;;;10.10;99.90;;;;;;5095276;28;20028;-65
2023/12/31 06:45:58;;;;;;;3.40;1.80;;;10.10;99.90;;;;;;5095261;28;20020;-65
2023/12/31 06:48:24;;;;;;;4.30;2.30;;;10.10;99.90;;;;;;5094107;28;20052;-65
2023/12/31 06:50:49;;;;;;;4.03;2.03;;;10.10;99.90;;;;;;5095142;28;20039;-65
2023/12/31 06:53:15;;;;;;;4.43;2.50;;;10.10;99.90;;;;;;5095135;28;20035;-65
2023/12/31 06:55:41;;;;;;;3.17;2.10;;;10.10;99.90;;;;;;5095000;28;20029;-65
2023/12/31 06:58:06;;;;;;;6.05;2.03;;;10.00;99.90;;;;;;5095075;28;20025;-65
2023/12/31 07:00:32;;;;;;;5.72;2.20;;;10.00;99.90;;;;;;5094063;28;20051;-65
2023/12/31 07:02:57;;;;;;;1.70;1.02;;;10.00;99.90;;;;;;5094718;28;20497;-65
2023/12/31 07:05:23;;;;;;;3.03;1.80;;;10.00;99.90;;;;;;5094932;28;20055;-65
2023/12/31 07:07:50;;;;;;;4.35;2.00;;;10.00;99.90;;;;;;5094839;28;20037;-65
2023/12/31 07:10:15;;;;;;;4.95;2.35;;;10.00;99.90;;;;;;5094839;28;20009;-65
2023/12/31 07:12:41;;;;;;;3.50;2.22;;;9.90;99.90;;;;;;5094010;28;20084;-65
2023/12/31 07:15:09;;;;;;;5.32;2.30;;;9.90;99.90;;;;;;5094766;28;20024;-65
2023/12/31 07:17:35;;;;;;;3.92;2.17;;;9.90;99.90;;;;;;5094704;28;20029;-65
2023/12/31 07:20:03;;;;;;;3.42;1.65;;;9.90;99.90;;;;;;5094653;28;20021;-65
2023/12/31 07:22:28;;;;;;;2.70;1.98;;;9.90;99.90;;;;;;5094635;28;20033;-65
2023/12/31 07:24:54;;;;;;;4.53;2.22;;;9.90;99.90;;;;;;5094563;28;20017;-65
2023/12/31 07:27:20;;;;;;;5.20;2.75;;;9.90;99.90;;;;;;5094399;28;20443;-65
2023/12/31 07:29:45;;;;;;;5.18;2.50;;;9.90;99.90;;;;;;5094282;28;20057;-65
2023/12/31 07:32:11;;;;;;;2.45;1.27;;;9.90;99.90;;;;;;5094130;28;20029;-65
2023/12/31 07:34:37;;;;;;;3.67;1.65;;;9.90;99.90;;;;;;5094400;28;20021;-64
2023/12/31 07:37:02;;;;;;;2.38;1.63;;;9.90;99.90;;;;;;5094432;28;20037;-64
2023/12/31 07:39:28;;;;;;;4.40;1.77;;;9.90;99.90;;;;;;5094306;28;20060;-64
2023/12/31 07:41:53;;;;;;;3.70;1.83;;;10.00;99.90;;;;;;5094338;28;20060;-64
2023/12/31 07:44:19;;;;;;;2.47;1.40;;;10.00;99.90;;;;;;5094126;28;20033;-65
2023/12/31 07:46:45;;;;;;;3.53;2.30;;;10.00;99.90;;;;;;5093993;28;20021;-64
2023/12/31 07:49:10;;;;;;;4.35;2.17;;;10.00;99.90;;;;;;5094039;28;20691;-64
2023/12/31 07:51:36;;;;;;;4.18;2.38;;;10.00;99.90;;;;;;5094069;28;20044;-64
2023/12/31 07:54:02;;;;;;;3.97;2.08;;;10.00;99.90;;;;;;5093977;28;20032;-64
2023/12/31 07:56:27;;;;;;;4.18;2.03;;;10.00;99.90;;;;;;5093910;28;20088;-64
2023/12/31 07:58:53;;;;;;;3.83;2.10;;;10.00;99.90;;;;;;5093831;28;20048;-64
2023/12/31 08:01:18;;;;;;;1.70;1.50;;;10.00;99.90;;;;;;5093591;28;20036;-64
2023/12/31 08:03:45;;;;;;;3.58;1.98;;;10.00;99.90;;;;;;5093766;28;20047;-64
2023/12/31 08:06:10;;;;;;;4.03;2.20;;;10.00;99.90;;;;;;5093662;28;20024;-65
2023/12/31 08:08:36;;;;;;;5.10;2.25;;;10.00;99.90;;;;;;5093656;28;20035;-64
2023/12/31 08:11:02;;;;;;;3.30;1.90;;;10.00;99.90;;;;;;5093609;28;20036;-65
2023/12/31 08:13:28;;;;;;;4.18;1.73;;;10.00;99.90;;;;;;5093619;28;20021;-65
2023/12/31 08:15:54;;;;;;;5.13;2.03;;;10.10;99.90;;;;;;5093453;28;20033;-65
2023/12/31 08:18:20;;;;;;;5.78;2.13;;;10.10;99.90;;;;;;5093505;28;20032;-64
2023/12/31 08:20:46;;;;;;;4.07;2.30;;;10.10;99.90;;;;;;5093331;28;20021;-64
2023/12/31 08:23:11;;;;;;;4.18;2.25;;;10.10;99.90;;;;;;5093515;28;20047;-64
2023/12/31 08:25:37;;;;;;;3.10;1.42;;;10.20;99.90;;;;;;5093332;28;20059;-64
2023/12/31 08:28:03;;;;;;;5.07;2.55;;;10.20;99.90;;;;;;5093207;28;20033;-65
2023/12/31 08:30:29;;;;;;;4.07;2.70;;;10.20;99.90;;;;;;5092908;28;20048;-64
2023/12/31 08:32:54;;;;;;;6.38;2.60;;;10.20;99.90;;;;;;5092972;28;20025;-65
2023/12/31 08:35:23;;;;;;;4.07;2.40;;;10.30;99.90;;;;;;5093026;28;20029;-64
2023/12/31 08:37:48;;;;;;;4.40;2.90;;;10.30;99.90;;;;;;5093113;28;20033;-64
2023/12/31 08:40:14;;;;;;;4.30;2.72;;;10.30;99.90;;;;;;5093102;28;20092;-64
2023/12/31 08:42:40;;;;;;;2.90;2.25;;;10.30;99.90;;;;;;5093207;28;20032;-65
2023/12/31 08:45:10;;;;;;;6.70;2.97;;;10.30;99.90;;;;;;5092844;28;20033;-64
2023/12/31 08:47:37;;;;;;;7.32;2.97;;;10.30;99.90;;;;;;5092898;28;20025;-64
2023/12/31 08:50:08;;;;;;;4.78;2.80;;;10.40;99.90;;;;;;5092847;28;20028;-64
2023/12/31 08:52:35;;;;;;;5.32;2.65;;;10.40;99.90;;;;;;5092915;28;20070;-64
2023/12/31 08:55:01;;;;;;;3.83;2.78;;;10.40;99.90;;;;;;5092844;28;20017;-65
2023/12/31 08:57:27;;;;;;;4.07;2.28;;;10.50;99.90;;;;;;5092602;28;20029;-64
2023/12/31 08:59:53;;;;;;;5.25;2.85;;;10.50;99.90;;;;;;5092765;28;20486;-63
2023/12/31 09:02:19;;;;;;;4.65;2.88;;;10.50;99.90;;;;;;5091367;28;20036;-64
2023/12/31 09:04:45;;;;;;;6.00;3.17;;;10.60;99.90;;;;;;5092630;28;20032;-63
2023/12/31 09:07:11;;;;;;;3.85;2.25;;;10.60;99.90;;;;;;5092506;28;20041;-65
2023/12/31 09:09:36;;;;;;;5.03;2.47;;;10.70;99.90;;;;;;5092556;28;20089;-64
2023/12/31 09:12:02;;;;;;;4.75;2.80;;;10.70;99.90;;;;;;5092521;28;20036;-63
2023/12/31 09:14:29;;;;;;;5.95;2.67;;;10.80;99.90;;;;;;5092560;28;20017;-64
2023/12/31 09:16:54;;;;;;;4.43;2.33;;;10.90;99.90;;;;;;5092502;28;20036;-64
2023/12/31 09:19:20;;;;;;;4.45;2.47;;;10.90;99.90;;;;;;5091494;28;20029;-63
2023/12/31 09:21:46;;;;;;;5.30;2.60;;;10.90;99.90;;;;;;5092286;28;20035;-64
2023/12/31 09:24:11;;;;;;;5.00;2.72;;;11.00;99.90;;;;;;5092335;28;20033;-64
2023/12/31 09:26:37;;;;;;;4.28;2.10;;;11.00;99.90;;;;;;5092204;28;20056;-64
2023/12/31 09:29:02;;;;;;;3.10;1.77;;;11.00;99.90;;;;;;5091970;28;20044;-64
2023/12/31 09:31:28;;;;;;;4.70;2.00;;;11.00;99.90;;;;;;5092109;28;20064;-63
2023/12/31 09:33:54;;;;;;;3.90;2.17;;;11.00;99.90;;;;;;5091053;28;20044;-64
2023/12/31 09:36:19;;;;;;;3.42;1.95;;;11.00;99.90;;;;;;5091774;28;20028;-64
2023/12/31 09:38:45;;;;;;;5.55;2.20;;;11.00;99.90;;;;;;5092227;28;20024;-63
2023/12/31 09:41:21;;;;;;;4.15;2.10;;;11.00;99.90;;;;;;5092090;28;20395;-64
2023/12/31 09:43:50;;;;;;;4.07;1.70;;;11.00;99.90;;;;;;5092198;28;20043;-64
2023/12/31 09:46:17;;;;;;;3.90;1.75;;;10.90;99.90;;;;;;5091155;28;20024;-64
2023/12/31 09:48:43;;;;;;;2.75;1.45;;;10.90;99.90;;;;;;5091953;28;20032;-64
2023/12/31 09:51:09;;;;;;;2.92;1.80;;;10.90;99.90;;;;;;5092151;28;20021;-64
2023/12/31 09:53:37;;;;;;;4.05;1.58;;;10.90;99.90;;;;;;5092026;28;20028;-64
2023/12/31 09:56:05;;;;;;;2.53;1.52;;;10.80;99.90;;;;;;5091979;28;20063;-64
2023/12/31 09:58:33;;;;;;;2.85;1.40;;;10.80;99.90;;;;;;5092172;28;20062;-64
2023/12/31 10:00:59;;;;;;;2.30;1.55;;;10.80;99.90;;;;;;5091833;28;20024;-64
2023/12/31 10:03:26;;;;;;;3.38;1.45;;;10.80;99.90;;;;;;5091989;28;20028;-63
2023/12/31 10:05:52;;;;;;;4.22;1.70;;;10.80;99.90;;;;;;5091899;28;20028;-63
2023/12/31 10:08:19;;;;;;;3.33;1.80;;;10.80;99.90;;;;;;5091806;28;20024;-64
2023/12/31 10:10:45;;;;;;;2.28;1.38;;;10.70;99.90;;;;;;5091933;28;20024;-63
2023/12/31 10:13:15;;;;;;;4.43;1.98;;;10.80;99.90;;;;;;5091881;28;20363;-64
2023/12/31 10:15:42;;;;;;;4.68;1.60;;;10.80;99.90;;;;;;5091934;28;20213;-64
2023/12/31 10:18:08;;;;;;;2.50;1.52;;;10.80;99.90;;;;;;5091942;28;20024;-64
2023/12/31 10:20:36;;;;;;;2.42;1.35;;;10.80;99.90;;;;;;5091880;28;20501;-64
2023/12/31 10:23:02;;;;;;;5.28;1.63;;;10.80;99.90;;;;;;5091667;28;20032;-64
2023/12/31 10:25:28;;;;;;;2.30;1.40;;;10.80;99.90;;;;;;5091708;28;20072;-64
2023/12/31 10:27:54;;;;;;;2.38;1.38;;;10.80;99.90;;;;;;5091605;28;20031;-64
2023/12/31 10:30:21;;;;;;;2.80;1.45;;;10.80;99.90;;;;;;5091502;28;20044;-63
2023/12/31 10:32:48;;;;;;;1.85;0.93;;;10.80;99.90;;;;;;5091497;28;20017;-64
2023/12/31 10:35:21;;;;;;;1.98;1.20;;;10.80;99.90;;;;;;5091655;28;20025;-64
2023/12/31 10:37:47;;;;;;;2.35;0.90;;;10.90;99.90;;;;;;5091652;28;20031;-63
2023/12/31 10:40:31;;;;;;;1.58;1.02;;;10.90;99.90;;;;;;5091620;28;20035;-64
2023/12/31 10:42:59;;;;;;;1.00;0.80;;;10.80;99.90;;;;;;5091662;28;20048;-64
2023/12/31 10:45:26;;;;;;;1.83;1.23;;;10.80;99.90;;;;;;5091599;28;20017;-64
2023/12/31 10:48:04;;;;;;;2.75;0.98;;;10.80;99.90;;;;;;5093702;28;20044;-64
2023/12/31 10:50:30;;;;;;;2.72;0.80;;;10.80;99.90;;;;;;5095143;28;20048;-64
2023/12/31 10:53:01;;;;;;;2.15;0.80;;;10.70;99.90;;;;;;5095237;28;20020;-63
2023/12/31 10:55:27;;;;;;;3.08;1.00;;;10.70;99.90;;;;;;5095083;28;20048;-64
2023/12/31 10:57:53;;;;;;;1.70;0.70;;;10.60;99.90;;;;;;5095077;28;20027;-63
2023/12/31 11:00:19;;;;;;;1.08;0.40;;;10.60;99.90;;;;;;5094924;28;20067;-64
2023/12/31 11:02:46;;;;;;;2.67;0.73;;;10.60;99.90;;;;;;5094902;28;20021;-64
2023/12/31 11:05:14;;;;;;;2.45;0.45;;;10.60;99.90;;;;;;5094934;28;20394;-63
2023/12/31 11:07:40;;;;;;;2.13;0.43;;;10.60;99.90;;;;;;5094808;28;20056;-63
2023/12/31 11:10:08;;;;;;;0.98;0.63;;;10.50;99.90;;;;;;5094859;28;20028;-63
2023/12/31 11:12:34;;;;;;;3.10;0.75;;;10.50;99.90;;;;;;5094875;28;20067;-63
2023/12/31 11:15:06;;;;;;;3.17;0.75;;;10.50;99.90;;;;;;5094643;28;20048;-64
2023/12/31 11:17:56;;;;;;;3.75;0.82;;;10.40;99.90;;;;;;5094790;28;20024;-63
2023/12/31 11:20:40;;;;;;;1.00;0.43;;;10.40;99.90;;;;;;5094680;28;20024;-63
2023/12/31 11:23:29;;;;;;;1.80;0.35;;;10.30;99.90;;;;;;5094681;28;20028;-63
2023/12/31 11:25:57;;;;;;;2.03;0.50;;;10.30;99.90;;;;;;5094641;28;20052;-64
2023/12/31 11:28:26;;;;;;;2.58;0.30;;;10.30;99.90;;;;;;5094564;28;20021;-63
2023/12/31 11:30:59;;;;;;;1.98;0.52;;;10.30;99.90;;;;;;5094292;28;20102;-64
2023/12/31 11:33:27;;;;;;;1.42;0.50;;;10.40;99.90;;;;;;5094456;28;20059;-63
2023/12/31 11:35:53;;;;;;;1.13;0.52;;;10.40;99.90;;;;;;5094317;28;20013;-63
2023/12/31 11:38:20;;;;;;;4.07;0.77;;;10.40;99.90;;;;;;5094432;28;20021;-63
2023/12/31 11:40:45;;;;;;;2.15;0.75;;;10.40;99.90;;;;;;5094357;28;20027;-63
2023/12/31 11:43:13;;;;;;;1.67;0.60;;;10.40;99.90;;;;;;5094352;28;20528;-63
2023/12/31 11:45:47;;;;;;;7.13;0.70;;;10.40;99.90;;;;;;5094253;28;20087;-63
2023/12/31 11:48:25;;;;;;;1.90;0.70;;;10.50;99.90;;;;;;5094098;28;20067;-63
2023/12/31 11:51:01;;;;;;;0.98;0.60;;;10.50;99.90;;;;;;5094082;28;20287;-62
2023/12/31 11:53:30;;;;;;;1.73;0.70;;;10.50;99.90;;;;;;5094123;28;20039;-64
2023/12/31 11:55:59;;;;;;;0.40;0.38;;;10.50;99.90;;;;;;5094027;28;20032;-63
2023/12/31 11:58:28;;;;;;;2.95;1.02;;;10.50;99.90;;;;;;5093585;28;20459;-62
2023/12/31 12:00:54;;;;;;;1.63;0.40;;;10.50;99.90;;;;;;5093572;28;20028;-63
2023/12/31 12:03:20;;;;;;;1.92;0.65;;;10.60;99.90;;;;;;5093832;28;20045;-63
2023/12/31 12:05:50;;;;;;;1.48;0.68;;;10.60;99.90;;;;;;5093877;28;20031;-62
2023/12/31 12:08:16;;;;;;;1.10;0.55;;;10.60;99.90;;;;;;5093712;28;20043;-63
2023/12/31 12:10:42;;;;;;;1.40;0.38;;;10.60;99.90;;;;;;5093855;28;20066;-63
2023/12/31 12:13:08;;;;;;;1.02;0.40;;;10.70;99.90;;;;;;5093628;28;20025;-63
2023/12/31 12:15:38;;;;;;;1.00;0.30;;;10.70;99.90;;;;;;5093549;28;20062;-63
2023/12/31 12:18:14;;;;;;;1.85;1.00;;;10.70;99.90;;;;;;5093627;28;20054;-63
2023/12/31 12:20:40;;;;;;;1.95;0.40;;;10.70;99.90;;;;;;5093471;28;20032;-63
2023/12/31 12:23:06;;;;;;;1.92;0.40;;;10.70;99.90;;;;;;5093527;28;20029;-63
2023/12/31 12:25:32;;;;;;;1.40;0.28;;;10.60;99.90;;;;;;5093237;28;20559;-64
2023/12/31 12:27:57;;;;;;;0.98;0.38;;;10.60;99.90;;;;;;5093220;28;20491;-63
2023/12/31 12:30:27;;;;;;;0.85;0.40;;;10.60;99.90;;;;;;5093096;28;20057;-63
2023/12/31 12:32:54;;;;;;;1.80;0.22;;;10.50;99.90;;;;;;5092983;28;20024;-63
2023/12/31 12:35:21;;;;;;;1.48;0.40;;;10.60;99.90;;;;;;5093151;28;20030;-63
2023/12/31 12:37:47;;;;;;;2.22;0.70;;;10.60;99.90;;;;;;5093177;28;20024;-64
2023/12/31 12:40:20;;;;;;;1.55;0.30;;;10.60;99.90;;;;;;5092026;28;20092;-62
2023/12/31 12:42:47;;;;;;;0.88;0.20;;;10.70;99.90;;;;;;5093146;28;20032;-65
2023/12/31 12:45:13;;;;;;;3.00;1.27;;;10.70;99.90;;;;;;5093094;28;20040;-63